Time;durP1;ratioP1;P1;durP2;ratioP2;P2;SDS_P1;SDS_P2;PMS_P1;PMS_P2;Temp;Humidity;BMP_temperature;BMP_pressure;BME280_temperature;BME280_humidity;BME280_pressure;Samples;Min_cycle;Max_cycle;Signal;HPM_P1;HPM_P2
2022/01/31 00:00:23;;;;;;;8.40;3.80;;;;;;;;;;5096529;28;20191;-81
2022/01/31 00:02:50;;;;;;;13.40;4.17;;;;;;;;;;5099279;28;20200;-80
2022/01/31 00:05:16;;;;;;;10.57;4.78;;;;;;;;;;5094401;28;21023;-83
2022/01/31 00:07:43;;;;;;;10.65;4.38;;;;;;;;;;5095054;28;20172;-79
2022/01/31 00:10:11;;;;;;;5.50;4.00;;;;;;;;;;5096947;28;20175;-80
2022/01/31 00:12:52;;;;;;;8.70;3.78;;;;;;;;;;5089158;28;20590;-80
2022/01/31 00:15:18;;;;;;;11.65;4.28;;;;;;;;;;5091719;28;20651;-80
2022/01/31 00:17:44;;;;;;;7.78;3.25;;;;;;;;;;5098012;28;20181;-81
2022/01/31 00:20:10;;;;;;;10.25;3.78;;;;;;;;;;5087206;28;20260;-83
2022/01/31 00:22:37;;;;;;;8.80;3.42;;;;;;;;;;5083979;28;20228;-80
2022/01/31 00:25:03;;;;;;;10.00;3.72;;;;;;;;;;5101042;28;20712;-80
2022/01/31 00:27:29;;;;;;;7.88;3.33;;;;;;;;;;5090826;28;20229;-79
2022/01/31 00:29:54;;;;;;;11.53;3.37;;;;;;;;;;5088363;28;20226;-78
2022/01/31 00:32:20;;;;;;;8.43;4.32;;;;;;;;;;5088343;28;20439;-81
2022/01/31 00:34:46;;;;;;;6.87;3.37;;;;;;;;;;5083868;28;20191;-81
2022/01/31 00:37:12;;;;;;;10.15;3.58;;;;;;;;;;5095968;28;20477;-79
2022/01/31 00:39:38;;;;;;;6.68;3.45;;;;;;;;;;5053586;28;20192;-80
2022/01/31 00:42:07;;;;;;;7.85;3.15;;;;;;;;;;5050104;28;20559;-84
2022/01/31 00:44:53;;;;;;;11.13;2.65;;;;;;;;;;5054812;28;20180;-82
2022/01/31 00:47:29;;;;;;;8.77;3.13;;;;;;;;;;5067858;28;20176;-86
2022/01/31 00:50:12;;;;;;;9.05;3.38;;;;;;;;;;5049517;28;20244;-82
2022/01/31 00:52:40;;;;;;;8.95;3.00;;;;;;;;;;5051310;28;20176;-82
2022/01/31 00:55:06;;;;;;;10.57;2.60;;;;;;;;;;5066705;28;20169;-80
2022/01/31 00:57:33;;;;;;;4.28;2.65;;;;;;;;;;5073987;28;20211;-80
2022/01/31 00:59:59;;;;;;;15.13;3.30;;;;;;;;;;5072282;28;20185;-85
2022/01/31 01:02:26;;;;;;;12.93;3.20;;;;;;;;;;5056451;28;20276;-80
2022/01/31 01:04:53;;;;;;;5.72;2.83;;;;;;;;;;5067571;28;20523;-82
2022/01/31 01:07:22;;;;;;;9.75;2.60;;;;;;;;;;5053747;28;20173;-83
2022/01/31 01:09:48;;;;;;;6.60;2.80;;;;;;;;;;5073888;28;20172;-84
2022/01/31 01:12:15;;;;;;;7.22;3.20;;;;;;;;;;5060001;28;20195;-82
2022/01/31 01:14:42;;;;;;;9.10;2.55;;;;;;;;;;5065955;28;20254;-82
2022/01/31 01:17:08;;;;;;;9.50;2.55;;;;;;;;;;5069071;28;20280;-83
2022/01/31 01:19:34;;;;;;;7.13;3.63;;;;;;;;;;5050319;28;20191;-83
2022/01/31 01:22:01;;;;;;;9.85;3.15;;;;;;;;;;5071242;28;20201;-81
2022/01/31 01:24:27;;;;;;;5.03;2.83;;;;;;;;;;5056708;28;20185;-82
2022/01/31 01:26:53;;;;;;;13.05;4.15;;;;;;;;;;5056107;28;20196;-86
2022/01/31 01:29:20;;;;;;;9.65;3.28;;;;;;;;;;5055929;28;20191;-83
2022/01/31 01:31:48;;;;;;;7.63;3.17;;;;;;;;;;5067365;28;20226;-83
2022/01/31 01:34:14;;;;;;;9.43;4.55;;;;;;;;;;5071066;28;20179;-82
2022/01/31 01:36:42;;;;;;;9.32;3.22;;;;;;;;;;5062403;28;20188;-88
2022/01/31 01:39:08;;;;;;;11.10;3.50;;;;;;;;;;5076428;28;20286;-89
2022/01/31 01:41:34;;;;;;;6.95;3.35;;;;;;;;;;5071605;28;20705;-85
2022/01/31 01:44:00;;;;;;;8.80;3.15;;;;;;;;;;5050567;28;20181;-83
2022/01/31 01:46:26;;;;;;;10.23;3.40;;;;;;;;;;5050596;28;20260;-86
2022/01/31 01:48:52;;;;;;;9.05;3.63;;;;;;;;;;5066885;28;20200;-89
2022/01/31 01:51:18;;;;;;;11.27;2.50;;;;;;;;;;5064638;28;20204;-85
2022/01/31 01:53:44;;;;;;;8.88;3.00;;;;;;;;;;5063760;28;20196;-84
2022/01/31 01:56:10;;;;;;;10.38;3.25;;;;;;;;;;5051611;28;20231;-87
2022/01/31 01:58:39;;;;;;;5.57;2.80;;;;;;;;;;5050465;28;20732;-83
2022/01/31 02:01:06;;;;;;;10.32;2.75;;;;;;;;;;5066191;28;20235;-84
2022/01/31 02:03:32;;;;;;;7.50;2.58;;;;;;;;;;5060346;28;20173;-83
2022/01/31 02:05:59;;;;;;;9.90;3.60;;;;;;;;;;5077552;28;20185;-85
2022/01/31 02:08:27;;;;;;;6.55;3.20;;;;;;;;;;5056112;28;20189;-83
2022/01/31 02:10:53;;;;;;;7.78;2.85;;;;;;;;;;5067886;28;20184;-83
2022/01/31 02:13:20;;;;;;;7.00;3.40;;;;;;;;;;5052066;28;20181;-84
2022/01/31 02:15:48;;;;;;;9.88;4.60;;;;;;;;;;5054962;28;20239;-86
2022/01/31 02:18:15;;;;;;;9.95;3.03;;;;;;;;;;5055848;28;20185;-83
2022/01/31 02:20:42;;;;;;;8.25;2.55;;;;;;;;;;5055518;28;20283;-83
2022/01/31 02:23:11;;;;;;;10.73;3.97;;;;;;;;;;5052523;28;20426;-85
2022/01/31 02:25:57;;;;;;;9.70;3.15;;;;;;;;;;5049627;28;20178;-82
2022/01/31 02:28:24;;;;;;;8.80;3.50;;;;;;;;;;5063768;28;20183;-81
2022/01/31 02:30:50;;;;;;;9.50;3.80;;;;;;;;;;5053812;28;20177;-80
2022/01/31 02:33:18;;;;;;;3.65;2.35;;;;;;;;;;5054668;28;20448;-82
2022/01/31 02:35:44;;;;;;;8.45;3.47;;;;;;;;;;5055166;28;20200;-80
2022/01/31 02:38:10;;;;;;;12.32;4.25;;;;;;;;;;5069851;28;20228;-81
2022/01/31 02:40:36;;;;;;;12.95;3.05;;;;;;;;;;5087446;28;20186;-80
2022/01/31 02:43:02;;;;;;;7.95;2.90;;;;;;;;;;5102068;28;20200;-80
2022/01/31 02:45:30;;;;;;;11.50;3.33;;;;;;;;;;5089671;28;20345;-80
2022/01/31 02:47:58;;;;;;;10.98;3.33;;;;;;;;;;5091763;28;20180;-81
2022/01/31 02:50:25;;;;;;;14.85;3.83;;;;;;;;;;5092292;28;20181;-83
2022/01/31 02:53:00;;;;;;;7.60;2.97;;;;;;;;;;5086452;28;20180;-81
2022/01/31 02:55:26;;;;;;;10.73;2.80;;;;;;;;;;5101059;28;20197;-81
2022/01/31 02:57:52;;;;;;;12.43;3.20;;;;;;;;;;5102306;28;20710;-84
2022/01/31 03:00:18;;;;;;;7.63;2.67;;;;;;;;;;5100390;28;20184;-81
2022/01/31 03:02:44;;;;;;;8.35;2.72;;;;;;;;;;5098299;28;20229;-82
2022/01/31 03:05:10;;;;;;;11.88;3.92;;;;;;;;;;5101325;28;20173;-79
2022/01/31 03:07:37;;;;;;;11.50;3.43;;;;;;;;;;5086601;28;20215;-80
2022/01/31 03:10:03;;;;;;;8.40;3.00;;;;;;;;;;5102727;28;20445;-79
2022/01/31 03:12:30;;;;;;;12.35;2.80;;;;;;;;;;5091068;28;20195;-80
2022/01/31 03:14:56;;;;;;;8.43;3.38;;;;;;;;;;5092239;28;20188;-81
2022/01/31 03:17:22;;;;;;;12.32;4.05;;;;;;;;;;5091206;28;20255;-82
2022/01/31 03:19:53;;;;;;;14.18;3.28;;;;;;;;;;5085304;28;20207;-82
2022/01/31 03:22:23;;;;;;;5.38;2.85;;;;;;;;;;5099932;28;20196;-80
2022/01/31 03:24:49;;;;;;;6.68;2.33;;;;;;;;;;5090900;28;20172;-79
2022/01/31 03:27:15;;;;;;;7.22;2.40;;;;;;;;;;5091422;28;20223;-80
2022/01/31 03:29:42;;;;;;;4.63;2.47;;;;;;;;;;5090582;28;20183;-79
2022/01/31 03:32:08;;;;;;;10.35;2.65;;;;;;;;;;5087346;28;20252;-80
2022/01/31 03:34:33;;;;;;;7.80;2.00;;;;;;;;;;5087316;28;20176;-80
2022/01/31 03:36:59;;;;;;;9.90;2.22;;;;;;;;;;5089612;28;20271;-79
2022/01/31 03:39:26;;;;;;;8.23;3.05;;;;;;;;;;5088901;28;20193;-81
2022/01/31 03:41:52;;;;;;;5.32;2.28;;;;;;;;;;5089543;28;20239;-81
2022/01/31 03:44:18;;;;;;;8.90;2.20;;;;;;;;;;5073137;28;20175;-81
2022/01/31 03:46:44;;;;;;;8.30;1.73;;;;;;;;;;5084732;28;20176;-82
2022/01/31 03:49:10;;;;;;;5.15;2.15;;;;;;;;;;5089233;28;20165;-84
2022/01/31 03:51:36;;;;;;;8.60;2.33;;;;;;;;;;5089051;28;20199;-82
2022/01/31 03:54:03;;;;;;;8.98;2.28;;;;;;;;;;5072925;28;20522;-84
2022/01/31 03:56:29;;;;;;;4.80;1.90;;;;;;;;;;5071034;28;20200;-84
2022/01/31 03:58:55;;;;;;;12.27;2.10;;;;;;;;;;5083394;28;20196;-81
2022/01/31 04:01:23;;;;;;;6.63;1.73;;;;;;;;;;5070944;28;20207;-82
2022/01/31 04:03:49;;;;;;;3.00;1.92;;;;;;;;;;5090218;28;20432;-77
2022/01/31 04:06:15;;;;;;;2.95;1.45;;;;;;;;;;5074090;28;20239;-76
2022/01/31 04:08:41;;;;;;;3.67;1.52;;;;;;;;;;5088596;28;20180;-78
2022/01/31 04:11:10;;;;;;;3.30;1.20;;;;;;;;;;5086424;28;20645;-80
2022/01/31 04:13:36;;;;;;;2.55;1.20;;;;;;;;;;5067624;28;20177;-78
2022/01/31 04:16:02;;;;;;;7.22;1.73;;;;;;;;;;5083532;28;20171;-78
2022/01/31 04:18:28;;;;;;;5.73;1.70;;;;;;;;;;5079508;28;20207;-79
2022/01/31 04:20:54;;;;;;;7.60;1.90;;;;;;;;;;5082118;28;20902;-81
2022/01/31 04:23:23;;;;;;;4.10;1.52;;;;;;;;;;5099449;28;20219;-78
2022/01/31 04:28:25;;;;;;;6.43;1.50;;;;;;;;;;5087811;28;20184;-78
2022/01/31 04:30:58;;;;;;;5.25;1.73;;;;;;;;;;5096285;28;20159;-80
2022/01/31 04:33:25;;;;;;;2.45;1.60;;;;;;;;;;5073416;28;20590;-79
2022/01/31 04:35:51;;;;;;;2.80;1.67;;;;;;;;;;5072986;28;20516;-79
2022/01/31 04:38:18;;;;;;;7.10;1.42;;;;;;;;;;5080401;28;20226;-79
2022/01/31 04:40:44;;;;;;;2.42;1.20;;;;;;;;;;5083740;28;20192;-79
2022/01/31 04:43:10;;;;;;;4.50;1.67;;;;;;;;;;5101498;28;20196;-79
2022/01/31 04:45:36;;;;;;;5.13;1.85;;;;;;;;;;5087957;28;20184;-78
2022/01/31 04:48:02;;;;;;;5.32;1.88;;;;;;;;;;5088610;28;20204;-79
2022/01/31 04:50:28;;;;;;;2.38;1.33;;;;;;;;;;5088096;28;20188;-78
2022/01/31 04:52:54;;;;;;;2.88;1.50;;;;;;;;;;5084983;28;20264;-80
2022/01/31 04:55:21;;;;;;;3.83;1.40;;;;;;;;;;5086967;28;20183;-78
2022/01/31 04:57:47;;;;;;;2.45;1.30;;;;;;;;;;5088638;28;20449;-78
2022/01/31 05:00:13;;;;;;;1.67;1.17;;;;;;;;;;5095088;28;20184;-79
2022/01/31 05:02:39;;;;;;;4.53;1.45;;;;;;;;;;5096378;28;20200;-79
2022/01/31 05:05:05;;;;;;;8.50;2.10;;;;;;;;;;5087010;28;20179;-79
2022/01/31 05:07:33;;;;;;;5.32;1.48;;;;;;;;;;5086733;28;20179;-78
2022/01/31 05:09:59;;;;;;;5.45;1.73;;;;;;;;;;5090260;28;20183;-80
2022/01/31 05:12:26;;;;;;;3.28;1.48;;;;;;;;;;5089741;28;20207;-80
2022/01/31 05:14:52;;;;;;;4.30;1.50;;;;;;;;;;5088230;28;20180;-79
2022/01/31 05:17:18;;;;;;;5.53;1.90;;;;;;;;;;5086868;28;20233;-79
2022/01/31 05:19:44;;;;;;;5.53;1.60;;;;;;;;;;5084849;28;20443;-79
2022/01/31 05:22:10;;;;;;;3.87;1.43;;;;;;;;;;5093560;28;20502;-79
2022/01/31 05:24:36;;;;;;;4.93;1.80;;;;;;;;;;5096261;28;20433;-80
2022/01/31 05:27:02;;;;;;;3.92;1.45;;;;;;;;;;5090904;28;20674;-80
2022/01/31 05:29:28;;;;;;;5.38;1.60;;;;;;;;;;5086613;28;20176;-80
2022/01/31 05:31:54;;;;;;;3.97;1.60;;;;;;;;;;5100313;28;20552;-79
2022/01/31 05:34:20;;;;;;;2.80;1.40;;;;;;;;;;5085906;28;20445;-80
2022/01/31 05:36:46;;;;;;;3.10;1.50;;;;;;;;;;5092454;28;20202;-80
2022/01/31 05:39:13;;;;;;;4.90;1.42;;;;;;;;;;5092662;28;20215;-81
2022/01/31 05:41:38;;;;;;;5.78;1.85;;;;;;;;;;5090995;28;20712;-81
2022/01/31 05:44:05;;;;;;;3.43;1.30;;;;;;;;;;5089290;28;20176;-81
2022/01/31 05:46:31;;;;;;;10.25;1.20;;;;;;;;;;5099047;28;20422;-81
2022/01/31 05:48:56;;;;;;;3.53;1.80;;;;;;;;;;5098587;28;20179;-79
2022/01/31 05:51:23;;;;;;;6.15;2.30;;;;;;;;;;5098261;28;20172;-79
2022/01/31 05:53:50;;;;;;;5.07;2.33;;;;;;;;;;5096552;28;20440;-79
2022/01/31 05:56:17;;;;;;;7.22;1.45;;;;;;;;;;5091191;28;20604;-77
2022/01/31 05:58:43;;;;;;;6.88;2.30;;;;;;;;;;5086819;28;20175;-79
2022/01/31 06:01:09;;;;;;;5.07;1.20;;;;;;;;;;5092121;28;20169;-80
2022/01/31 06:03:37;;;;;;;8.50;2.83;;;;;;;;;;5094234;28;20241;-80
2022/01/31 06:06:03;;;;;;;7.45;1.90;;;;;;;;;;5092347;28;20434;-80
2022/01/31 06:08:29;;;;;;;9.07;2.40;;;;;;;;;;5091259;28;20550;-78
2022/01/31 06:10:56;;;;;;;11.48;2.80;;;;;;;;;;5088531;28;20208;-80
2022/01/31 06:13:28;;;;;;;5.95;1.40;;;;;;;;;;5088122;28;20275;-78
2022/01/31 06:15:54;;;;;;;7.93;2.17;;;;;;;;;;5092970;28;20172;-79
2022/01/31 06:18:20;;;;;;;2.85;1.40;;;;;;;;;;5094792;28;20188;-79
2022/01/31 06:20:46;;;;;;;8.82;2.55;;;;;;;;;;5090980;28;20458;-79
2022/01/31 06:23:13;;;;;;;7.43;2.40;;;;;;;;;;5090206;28;20244;-79
2022/01/31 06:25:39;;;;;;;4.50;1.52;;;;;;;;;;5086687;28;20168;-76
2022/01/31 06:28:06;;;;;;;4.53;1.77;;;;;;;;;;5103149;28;20529;-77
2022/01/31 06:30:33;;;;;;;7.55;2.05;;;;;;;;;;5092308;28;20271;-77
2022/01/31 06:32:59;;;;;;;4.70;1.92;;;;;;;;;;5089480;28;20195;-78
2022/01/31 06:35:25;;;;;;;3.65;1.75;;;;;;;;;;5096811;28;20218;-79
2022/01/31 06:37:52;;;;;;;8.02;2.60;;;;;;;;;;5086282;28;20238;-79
2022/01/31 06:40:18;;;;;;;5.20;1.60;;;;;;;;;;5075610;28;20243;-78
2022/01/31 06:42:44;;;;;;;5.53;1.80;;;;;;;;;;5078989;28;20211;-78
2022/01/31 06:45:10;;;;;;;7.88;1.70;;;;;;;;;;5076878;28;20173;-78
2022/01/31 06:47:36;;;;;;;6.05;1.55;;;;;;;;;;5092145;28;20194;-79
2022/01/31 06:50:04;;;;;;;5.35;1.80;;;;;;;;;;5079791;28;20204;-79
2022/01/31 06:52:33;;;;;;;8.80;1.38;;;;;;;;;;5083050;28;20191;-77
2022/01/31 06:55:03;;;;;;;5.60;1.75;;;;;;;;;;5084957;28;20234;-78
2022/01/31 06:57:33;;;;;;;3.78;1.58;;;;;;;;;;5091233;28;20184;-78
2022/01/31 07:00:00;;;;;;;3.33;2.78;;;;;;;;;;5071812;28;20215;-78
2022/01/31 07:02:26;;;;;;;6.00;1.70;;;;;;;;;;5080438;28;20204;-79
2022/01/31 07:04:52;;;;;;;8.13;1.60;;;;;;;;;;5069154;28;20217;-78
2022/01/31 07:07:18;;;;;;;5.28;1.63;;;;;;;;;;5099846;28;20176;-79
2022/01/31 07:09:44;;;;;;;3.13;1.40;;;;;;;;;;5072303;28;20638;-78
2022/01/31 07:12:12;;;;;;;2.92;1.77;;;;;;;;;;5074068;28;20522;-77
2022/01/31 07:14:38;;;;;;;5.00;1.55;;;;;;;;;;5074809;28;20186;-78
2022/01/31 07:17:06;;;;;;;5.82;1.63;;;;;;;;;;5070883;28;20180;-78
2022/01/31 07:19:35;;;;;;;6.45;2.17;;;;;;;;;;5087958;28;20172;-79
2022/01/31 07:22:04;;;;;;;3.65;1.95;;;;;;;;;;5070950;28;20211;-77
2022/01/31 07:27:03;;;;;;;9.93;1.70;;;;;;;;;;5097008;28;20188;-78
2022/01/31 07:29:32;;;;;;;2.63;1.55;;;;;;;;;;5074074;28;20274;-79
2022/01/31 07:31:58;;;;;;;3.78;1.60;;;;;;;;;;5088557;28;20738;-78
2022/01/31 07:34:25;;;;;;;4.65;1.77;;;;;;;;;;5070165;28;20329;-79
2022/01/31 07:36:51;;;;;;;4.80;1.45;;;;;;;;;;5089238;28;20222;-79
2022/01/31 07:39:17;;;;;;;7.43;2.00;;;;;;;;;;5096062;28;20237;-77
2022/01/31 07:41:44;;;;;;;10.48;1.88;;;;;;;;;;5079594;28;20199;-83
2022/01/31 07:44:11;;;;;;;5.78;2.28;;;;;;;;;;5070893;28;20533;-82
2022/01/31 07:46:38;;;;;;;5.38;1.60;;;;;;;;;;5077492;28;20217;-83
2022/01/31 07:49:05;;;;;;;6.72;2.53;;;;;;;;;;5073169;28;20260;-81
2022/01/31 07:51:31;;;;;;;4.60;1.77;;;;;;;;;;5081304;28;20180;-84
2022/01/31 07:53:57;;;;;;;6.25;1.40;;;;;;;;;;5095408;28;20181;-82
2022/01/31 07:56:23;;;;;;;3.42;1.30;;;;;;;;;;5088743;28;20667;-82
2022/01/31 07:58:49;;;;;;;4.50;1.60;;;;;;;;;;5084873;28;20241;-81
2022/01/31 08:01:15;;;;;;;5.90;2.00;;;;;;;;;;5092771;28;20404;-78
2022/01/31 08:03:41;;;;;;;5.20;1.90;;;;;;;;;;5081480;28;20200;-80
2022/01/31 08:06:07;;;;;;;5.38;2.08;;;;;;;;;;5095084;28;20182;-80
2022/01/31 08:08:34;;;;;;;4.45;1.83;;;;;;;;;;5078429;28;20180;-81
2022/01/31 08:11:02;;;;;;;7.15;1.60;;;;;;;;;;5095936;28;20181;-81
2022/01/31 08:13:28;;;;;;;9.38;1.90;;;;;;;;;;5080442;28;20203;-79
2022/01/31 08:18:27;;;;;;;4.07;1.80;;;;;;;;;;5089447;28;20192;-80
2022/01/31 08:20:53;;;;;;;6.55;2.53;;;;;;;;;;5070471;28;20211;-80
2022/01/31 08:23:19;;;;;;;6.75;1.50;;;;;;;;;;5088986;28;20203;-80
2022/01/31 08:25:48;;;;;;;5.15;1.90;;;;;;;;;;5079112;28;20181;-80
2022/01/31 08:28:15;;;;;;;6.05;1.90;;;;;;;;;;5080298;28;20174;-80
2022/01/31 08:30:57;;;;;;;4.78;2.03;;;;;;;;;;5071760;28;20596;-80
2022/01/31 08:33:35;;;;;;;3.25;1.80;;;;;;;;;;5077988;28;20201;-79
2022/01/31 08:36:02;;;;;;;6.50;1.77;;;;;;;;;;5080862;28;20206;-81
2022/01/31 08:38:29;;;;;;;6.15;2.00;;;;;;;;;;5092046;28;20267;-80
2022/01/31 08:40:55;;;;;;;7.05;2.13;;;;;;;;;;5094274;28;20190;-87
2022/01/31 08:43:21;;;;;;;7.28;1.80;;;;;;;;;;5098064;28;20229;-80
2022/01/31 08:45:49;;;;;;;5.50;2.83;;;;;;;;;;5100064;28;20332;-81
2022/01/31 08:48:15;;;;;;;6.03;2.05;;;;;;;;;;5092843;28;20207;-79
2022/01/31 08:50:41;;;;;;;17.85;3.85;;;;;;;;;;5089869;28;20526;-80
2022/01/31 08:53:07;;;;;;;6.47;2.90;;;;;;;;;;5087835;28;20263;-79
2022/01/31 08:55:35;;;;;;;7.80;2.33;;;;;;;;;;5086172;28;20240;-80
2022/01/31 08:58:01;;;;;;;5.07;2.35;;;;;;;;;;5087843;28;20176;-80
2022/01/31 09:00:34;;;;;;;10.63;2.38;;;;;;;;;;5088932;28;20192;-81
2022/01/31 09:05:50;;;;;;;8.65;2.80;;;;;;;;;;5052206;28;20177;-78
2022/01/31 09:08:16;;;;;;;11.52;3.33;;;;;;;;;;5043355;28;20217;-81
2022/01/31 09:10:43;;;;;;;8.48;2.97;;;;;;;;;;5027629;28;20227;-80
2022/01/31 09:13:12;;;;;;;9.68;1.88;;;;;;;;;;5061573;28;20260;-79
2022/01/31 09:15:38;;;;;;;7.22;2.30;;;;;;;;;;5035793;28;20189;-79
2022/01/31 09:18:04;;;;;;;8.60;1.90;;;;;;;;;;5057133;28;20203;-78
2022/01/31 09:20:30;;;;;;;8.90;2.42;;;;;;;;;;5063600;28;20180;-80
2022/01/31 09:22:56;;;;;;;11.97;2.83;;;;;;;;;;5063251;28;20227;-80
2022/01/31 09:25:26;;;;;;;3.40;1.80;;;;;;;;;;5047594;28;20412;-80
2022/01/31 09:27:52;;;;;;;5.68;1.73;;;;;;;;;;5047842;28;20496;-81
2022/01/31 09:30:21;;;;;;;10.30;2.15;;;;;;;;;;5046651;28;20193;-82
2022/01/31 09:32:47;;;;;;;7.70;2.00;;;;;;;;;;5042960;28;20185;-83
2022/01/31 09:35:13;;;;;;;8.90;2.40;;;;;;;;;;5033888;28;20196;-81
2022/01/31 09:37:39;;;;;;;11.90;2.33;;;;;;;;;;5062441;28;20885;-81
2022/01/31 09:40:06;;;;;;;9.25;2.10;;;;;;;;;;5064746;28;20856;-81
2022/01/31 09:42:42;;;;;;;10.90;2.03;;;;;;;;;;5050636;28;20681;-81
2022/01/31 09:45:15;;;;;;;5.55;2.00;;;;;;;;;;5075962;28;20176;-81
2022/01/31 09:50:22;;;;;;;6.43;3.00;;;;;;;;;;5093245;28;20247;-83
2022/01/31 09:52:48;;;;;;;6.50;1.85;;;;;;;;;;5087166;28;20211;-82
2022/01/31 09:55:14;;;;;;;5.25;1.73;;;;;;;;;;5088312;28;20171;-80
2022/01/31 09:57:40;;;;;;;15.32;2.35;;;;;;;;;;5091925;28;20256;-81
2022/01/31 10:00:07;;;;;;;5.30;1.80;;;;;;;;;;5091266;28;20215;-81
2022/01/31 10:02:33;;;;;;;6.25;2.03;;;;;;;;;;5075799;28;20271;-80
2022/01/31 10:04:59;;;;;;;7.07;2.25;;;;;;;;;;5088342;28;20195;-80
2022/01/31 10:07:42;;;;;;;8.65;1.58;;;;;;;;;;5089294;28;20173;-84
2022/01/31 10:10:23;;;;;;;6.43;2.30;;;;;;;;;;5090840;28;20236;-82
2022/01/31 10:18:08;;;;;;;10.98;3.10;;;;;;;;;;5090695;28;20203;-82
2022/01/31 10:20:34;;;;;;;6.78;2.65;;;;;;;;;;5075494;28;20179;-83
2022/01/31 10:23:10;;;;;;;5.07;1.98;;;;;;;;;;5069849;28;20301;-81
2022/01/31 10:25:36;;;;;;;9.57;2.13;;;;;;;;;;5070535;28;20547;-80
2022/01/31 10:28:09;;;;;;;10.65;2.25;;;;;;;;;;5090398;28;20263;-81
2022/01/31 10:30:35;;;;;;;12.25;2.63;;;;;;;;;;5074980;28;20187;-83
2022/01/31 10:33:02;;;;;;;4.28;1.58;;;;;;;;;;5075888;28;20181;-82
2022/01/31 10:35:32;;;;;;;5.32;2.17;;;;;;;;;;5075200;28;20191;-82
2022/01/31 10:38:08;;;;;;;4.43;1.85;;;;;;;;;;5076405;28;20576;-80
2022/01/31 10:43:40;;;;;;;5.00;2.00;;;;;;;;;;5107154;28;20202;-82
2022/01/31 10:56:42;;;;;;;4.25;2.10;;;;;;;;;;5089839;28;20184;-81
2022/01/31 10:59:08;;;;;;;4.18;1.73;;;;;;;;;;5087842;28;20176;-83
2022/01/31 11:01:37;;;;;;;4.70;1.80;;;;;;;;;;5088126;28;20257;-83
2022/01/31 11:04:04;;;;;;;6.07;1.73;;;;;;;;;;5089929;28;20421;-82
2022/01/31 11:06:30;;;;;;;3.35;1.90;;;;;;;;;;5090001;28;20177;-81
2022/01/31 11:09:01;;;;;;;7.97;2.30;;;;;;;;;;5089867;28;20687;-80
2022/01/31 11:11:27;;;;;;;9.55;2.42;;;;;;;;;;5091222;28;20195;-80
2022/01/31 11:13:54;;;;;;;6.53;2.13;;;;;;;;;;5086045;28;20191;-82
2022/01/31 11:16:21;;;;;;;5.25;1.70;;;;;;;;;;5088928;28;20411;-80
2022/01/31 11:18:47;;;;;;;3.45;1.90;;;;;;;;;;5091436;28;20184;-81
2022/01/31 11:21:14;;;;;;;6.38;1.83;;;;;;;;;;5091307;28;20268;-79
2022/01/31 11:23:43;;;;;;;2.70;1.58;;;;;;;;;;5090923;28;20288;-84
2022/01/31 11:26:11;;;;;;;11.82;1.92;;;;;;;;;;5089196;28;20188;-84
2022/01/31 11:28:39;;;;;;;4.13;1.83;;;;;;;;;;5085404;28;20184;-82
2022/01/31 11:31:05;;;;;;;9.55;2.60;;;;;;;;;;5089133;28;20172;-81
2022/01/31 11:33:34;;;;;;;3.72;1.88;;;;;;;;;;5088958;28;20176;-82
2022/01/31 11:36:00;;;;;;;7.20;1.70;;;;;;;;;;5090283;28;20180;-83
2022/01/31 11:38:28;;;;;;;7.88;2.42;;;;;;;;;;5105117;28;20733;-78
2022/01/31 11:40:54;;;;;;;9.60;1.70;;;;;;;;;;5084791;28;20188;-82
2022/01/31 11:43:20;;;;;;;5.57;2.60;;;;;;;;;;5086504;28;20692;-82
2022/01/31 11:45:47;;;;;;;6.15;2.08;;;;;;;;;;5090370;28;20252;-80
2022/01/31 11:48:14;;;;;;;3.92;1.95;;;;;;;;;;5090672;28;20188;-84
2022/01/31 11:50:45;;;;;;;5.55;2.22;;;;;;;;;;5089090;28;20176;-83
2022/01/31 11:53:11;;;;;;;9.07;2.78;;;;;;;;;;5088827;28;20243;-86
2022/01/31 11:55:41;;;;;;;2.10;1.13;;;;;;;;;;5085358;28;20183;-85
2022/01/31 11:58:08;;;;;;;2.95;1.33;;;;;;;;;;5088321;28;20198;-87
2022/01/31 12:00:39;;;;;;;3.75;1.20;;;;;;;;;;5090158;28;20189;-81
2022/01/31 12:03:09;;;;;;;3.83;1.55;;;;;;;;;;5089439;28;20264;-87
2022/01/31 12:05:36;;;;;;;4.10;1.05;;;;;;;;;;5091070;28;20562;-85
2022/01/31 12:08:02;;;;;;;4.90;3.10;;;;;;;;;;5087138;28;20203;-86
2022/01/31 12:10:38;;;;;;;3.53;1.95;;;;;;;;;;5085184;28;20184;-84
2022/01/31 12:13:26;;;;;;;3.30;1.75;;;;;;;;;;5087578;28;20239;-84
2022/01/31 12:23:50;;;;;;;4.10;1.60;;;;;;;;;;5096388;28;20258;-83
2022/01/31 12:26:35;;;;;;;5.18;1.48;;;;;;;;;;5087205;28;20184;-80
2022/01/31 12:29:10;;;;;;;3.40;1.30;;;;;;;;;;5087007;28;20190;-86
2022/01/31 12:31:36;;;;;;;2.55;1.10;;;;;;;;;;5086735;28;20179;-80
2022/01/31 12:34:04;;;;;;;5.60;1.60;;;;;;;;;;5088599;28;20203;-80
2022/01/31 12:36:36;;;;;;;6.90;2.47;;;;;;;;;;5089906;28;20431;-81
2022/01/31 12:39:04;;;;;;;6.10;1.40;;;;;;;;;;5090654;28;20212;-81
2022/01/31 12:41:31;;;;;;;6.75;1.35;;;;;;;;;;5092566;28;20191;-80
2022/01/31 12:44:16;;;;;;;4.13;2.00;;;;;;;;;;5101823;28;20274;-79
2022/01/31 12:46:49;;;;;;;6.93;3.13;;;;;;;;;;5109490;28;20195;-79
2022/01/31 12:49:15;;;;;;;4.38;1.88;;;;;;;;;;5095657;28;20179;-81
2022/01/31 12:52:01;;;;;;;7.28;2.38;;;;;;;;;;5097146;28;20203;-82
2022/01/31 12:54:27;;;;;;;11.68;2.38;;;;;;;;;;5104971;28;20179;-82
2022/01/31 12:56:54;;;;;;;4.03;1.98;;;;;;;;;;5104265;28;20176;-82
2022/01/31 12:59:21;;;;;;;9.45;2.28;;;;;;;;;;5097191;28;20598;-82
2022/01/31 13:01:48;;;;;;;12.18;1.52;;;;;;;;;;5092117;28;20769;-81
2022/01/31 13:04:21;;;;;;;5.30;2.45;;;;;;;;;;5092924;28;20174;-79
2022/01/31 13:06:50;;;;;;;3.97;1.50;;;;;;;;;;5109723;28;20195;-83
2022/01/31 13:09:21;;;;;;;2.45;1.27;;;;;;;;;;5109300;28;20235;-79
2022/01/31 13:11:52;;;;;;;4.90;2.05;;;;;;;;;;5109745;28;20179;-82
2022/01/31 13:14:21;;;;;;;5.70;1.23;;;;;;;;;;5108370;28;20304;-79
2022/01/31 13:17:07;;;;;;;3.35;1.00;;;;;;;;;;5105129;28;20183;-82
2022/01/31 13:19:38;;;;;;;2.67;1.20;;;;;;;;;;5105195;28;20271;-83
2022/01/31 13:22:07;;;;;;;2.55;1.40;;;;;;;;;;5107629;28;20199;-81
2022/01/31 13:24:37;;;;;;;3.33;1.42;;;;;;;;;;5098702;28;20172;-80
2022/01/31 13:27:04;;;;;;;4.10;1.20;;;;;;;;;;5095090;28;20184;-79
2022/01/31 13:29:32;;;;;;;7.13;1.65;;;;;;;;;;5096045;28;20198;-81
2022/01/31 13:31:59;;;;;;;8.10;1.63;;;;;;;;;;5092695;28;20175;-81
2022/01/31 13:34:40;;;;;;;3.53;2.08;;;;;;;;;;5092090;28;20365;-81
2022/01/31 13:37:26;;;;;;;4.70;1.92;;;;;;;;;;5091898;28;20631;-80
2022/01/31 13:39:56;;;;;;;3.80;2.03;;;;;;;;;;5066278;28;20192;-82
2022/01/31 13:42:25;;;;;;;7.30;1.38;;;;;;;;;;5061028;28;20296;-83
2022/01/31 13:44:53;;;;;;;5.65;1.58;;;;;;;;;;5080398;28;20176;-86
2022/01/31 13:47:33;;;;;;;2.80;1.40;;;;;;;;;;5070459;28;20240;-84
2022/01/31 13:50:01;;;;;;;4.05;1.48;;;;;;;;;;5055000;28;20196;-83
2022/01/31 13:52:33;;;;;;;5.00;2.25;;;;;;;;;;5088283;28;20187;-83
2022/01/31 13:54:59;;;;;;;4.75;3.08;;;;;;;;;;5071123;28;20176;-84
2022/01/31 13:57:25;;;;;;;2.78;1.50;;;;;;;;;;5081742;28;20234;-82
2022/01/31 13:59:51;;;;;;;2.78;1.25;;;;;;;;;;5063674;28;20185;-82
2022/01/31 14:02:18;;;;;;;4.82;1.60;;;;;;;;;;5073497;28;20223;-83
2022/01/31 14:04:44;;;;;;;5.13;1.80;;;;;;;;;;5051237;28;20180;-85
2022/01/31 14:07:43;;;;;;;4.95;2.00;;;;;;;;;;5086331;28;20224;-81
2022/01/31 14:10:31;;;;;;;6.88;2.50;;;;;;;;;;4969593;28;20227;-82
2022/01/31 14:13:04;;;;;;;5.30;2.03;;;;;;;;;;4982343;28;20222;-83
2022/01/31 14:15:37;;;;;;;2.67;1.20;;;;;;;;;;4966051;28;20188;-83
2022/01/31 14:18:03;;;;;;;5.03;1.20;;;;;;;;;;4966983;28;20196;-80
2022/01/31 14:20:31;;;;;;;3.42;1.67;;;;;;;;;;4966048;28;20276;-81
2022/01/31 14:23:00;;;;;;;3.70;1.55;;;;;;;;;;4981902;28;20724;-83
2022/01/31 14:25:26;;;;;;;2.42;1.75;;;;;;;;;;4984064;28;20176;-84
2022/01/31 14:27:53;;;;;;;5.20;1.73;;;;;;;;;;4982979;28;20188;-81
2022/01/31 14:30:20;;;;;;;4.53;1.80;;;;;;;;;;4964071;28;20188;-81
2022/01/31 14:32:56;;;;;;;2.10;1.50;;;;;;;;;;4966482;28;20305;-80
2022/01/31 14:35:23;;;;;;;7.95;1.45;;;;;;;;;;4983017;28;20198;-81
2022/01/31 14:37:52;;;;;;;3.47;1.40;;;;;;;;;;4996435;28;20231;-83
2022/01/31 14:40:39;;;;;;;5.55;1.70;;;;;;;;;;5021874;28;20190;-82
2022/01/31 14:43:16;;;;;;;3.47;1.42;;;;;;;;;;5006781;28;20202;-83
2022/01/31 14:48:30;;;;;;;4.10;1.48;;;;;;;;;;5096392;28;20188;-83
2022/01/31 14:50:56;;;;;;;4.40;2.10;;;;;;;;;;5097548;28;20263;-83
2022/01/31 14:53:23;;;;;;;2.90;1.20;;;;;;;;;;5102873;28;20184;-81
2022/01/31 14:55:50;;;;;;;5.45;1.30;;;;;;;;;;5105311;28;20187;-80
2022/01/31 14:58:16;;;;;;;5.55;1.23;;;;;;;;;;5104571;28;20248;-82
2022/01/31 15:00:44;;;;;;;4.90;1.70;;;;;;;;;;5092210;28;20192;-80
2022/01/31 15:03:10;;;;;;;4.60;1.38;;;;;;;;;;5088854;28;20611;-82
2022/01/31 15:05:36;;;;;;;5.95;1.55;;;;;;;;;;5091134;28;20628;-83
2022/01/31 15:08:03;;;;;;;5.70;1.50;;;;;;;;;;5089933;28;20180;-83
2022/01/31 15:10:31;;;;;;;3.25;1.50;;;;;;;;;;5087196;28;20196;-81
2022/01/31 15:12:57;;;;;;;5.07;1.98;;;;;;;;;;5103301;28;20644;-82
2022/01/31 15:15:25;;;;;;;5.03;1.75;;;;;;;;;;5092561;28;20605;-81
2022/01/31 15:17:51;;;;;;;3.33;1.42;;;;;;;;;;5096685;28;20413;-83
2022/01/31 15:20:18;;;;;;;1.92;1.10;;;;;;;;;;5091085;28;20184;-83
2022/01/31 15:22:45;;;;;;;6.78;1.40;;;;;;;;;;5103811;28;20203;-84
2022/01/31 15:25:11;;;;;;;3.40;1.33;;;;;;;;;;5100310;28;20181;-79
2022/01/31 15:27:37;;;;;;;4.30;1.85;;;;;;;;;;5096524;28;20191;-83